Main page
METAR-TAF:

METAR-TAF

Airports :

Reyes Airport

Reyes, Bolivia

latitude: 14-19S, longitude: 067-23W, elevation: 140 m

Current weather observation

The report was made 57 minutes ago, at 13:00 UTC
Calm wind
Temperature 19°C
Humidity 73%
Pressure 1020 hPa
Visibility 10 km or more
Few clouds at a height of 8000 ft

METAR: SLRY 171300Z 00000KT 9999 FEW080 19/14 Q1020

Time: 09:57 (13:57 UTC)


TAF: missing

Weather observations and forecasts of more than 4000 airports (METAR and TAF reports).

The available stations are represented by yellow and red dots on the map.

Hover mouse over dot to see the name of the station.

Then click to see weather observations and forecasts.

To change the map : click on the green buttons with a black cross to zoom in, on the green button with a dash to zoom out, or on the green arrows for adjacent maps.


METAR-TAF: